Time;durP1;ratioP1;P1;durP2;ratioP2;P2;SDS_P1;SDS_P2;PMS_P1;PMS_P2;Temp;Humidity;BMP_temperature;BMP_pressure;BME280_temperature;BME280_humidity;BME280_pressure;Samples;Min_cycle;Max_cycle;Signal;HPM_P1;HPM_P2
2023/04/12 00:00:10;;;;;;;3.50;3.25;;;11.10;99.90;;;;;;5078312;28;20292;-67
2023/04/12 00:02:38;;;;;;;3.40;3.17;;;11.20;99.90;;;;;;5077081;28;20213;-68
2023/04/12 00:05:08;;;;;;;3.22;3.03;;;11.10;99.90;;;;;;5078201;28;20826;-68
2023/04/12 00:07:37;;;;;;;3.05;2.85;;;11.10;99.90;;;;;;5072627;28;20314;-67
2023/04/12 00:10:05;;;;;;;3.55;3.20;;;11.10;99.90;;;;;;5076494;28;20202;-69
2023/04/12 00:12:31;;;;;;;2.70;2.50;;;11.10;99.90;;;;;;5075096;28;20194;-69
2023/04/12 00:15:00;;;;;;;3.22;2.97;;;11.00;99.90;;;;;;5079093;28;20225;-68
2023/04/12 00:17:27;;;;;;;3.42;3.20;;;11.00;99.90;;;;;;5080193;28;20230;-67
2023/04/12 00:19:54;;;;;;;2.97;2.78;;;11.00;99.90;;;;;;5082387;28;20197;-67
2023/04/12 00:22:23;;;;;;;2.85;2.65;;;10.90;99.90;;;;;;5085351;28;20240;-68
2023/04/12 00:24:50;;;;;;;3.17;2.88;;;10.90;99.90;;;;;;5087522;28;20201;-69
2023/04/12 00:27:16;;;;;;;2.80;2.60;;;10.80;99.90;;;;;;5095703;28;20210;-68
2023/04/12 00:29:43;;;;;;;3.28;3.08;;;10.80;99.90;;;;;;5096883;28;20205;-70
2023/04/12 00:32:10;;;;;;;3.00;2.80;;;10.70;99.90;;;;;;5101745;28;20217;-69
2023/04/12 00:34:37;;;;;;;3.25;3.05;;;10.90;99.90;;;;;;5102598;28;20194;-71
2023/04/12 00:37:04;;;;;;;2.80;2.60;;;10.90;99.90;;;;;;5098005;28;20204;-69
2023/04/12 00:39:32;;;;;;;3.10;2.90;;;10.90;99.90;;;;;;5096112;28;20663;-67
2023/04/12 00:42:03;;;;;;;2.80;2.60;;;10.80;99.90;;;;;;5095147;28;20221;-70
2023/04/12 00:44:31;;;;;;;2.80;2.60;;;10.80;99.90;;;;;;5095649;28;20205;-69
2023/04/12 00:46:59;;;;;;;2.80;2.60;;;10.80;99.90;;;;;;5085417;28;20224;-68
2023/04/12 00:49:29;;;;;;;3.40;3.10;;;10.80;99.90;;;;;;5082678;28;20228;-68
2023/04/12 00:51:58;;;;;;;3.25;2.80;;;10.70;99.90;;;;;;5082547;28;20206;-69
2023/04/12 00:54:25;;;;;;;2.40;2.30;;;10.70;99.90;;;;;;5081859;28;20290;-70
2023/04/12 00:56:55;;;;;;;2.47;2.38;;;10.70;99.90;;;;;;5081242;28;20298;-69
2023/04/12 00:59:22;;;;;;;2.60;2.50;;;10.60;99.90;;;;;;5080373;28;20919;-69
2023/04/12 01:01:49;;;;;;;2.60;2.40;;;10.60;99.90;;;;;;5072790;28;20293;-68
2023/04/12 01:04:16;;;;;;;2.70;2.50;;;10.60;99.90;;;;;;5075817;28;20198;-69
2023/04/12 01:07:00;;;;;;;2.50;2.30;;;10.60;99.90;;;;;;5078043;28;20249;-69
2023/04/12 01:09:36;;;;;;;2.78;2.58;;;10.60;99.90;;;;;;5079866;28;20229;-69
2023/04/12 01:12:14;;;;;;;2.40;2.28;;;10.60;99.90;;;;;;5076712;28;20292;-69
2023/04/12 01:14:50;;;;;;;2.90;2.70;;;10.60;99.90;;;;;;5073445;28;20220;-72
2023/04/12 01:17:23;;;;;;;2.33;2.22;;;10.60;99.90;;;;;;5078067;28;20203;-69
2023/04/12 01:19:57;;;;;;;2.30;2.08;;;10.60;99.90;;;;;;5079029;28;20824;-72
2023/04/12 01:22:59;;;;;;;2.72;2.35;;;10.60;99.90;;;;;;5081968;28;20216;-70
2023/04/12 01:25:39;;;;;;;2.40;2.20;;;10.60;99.90;;;;;;5076323;28;20193;-70
2023/04/12 01:28:10;;;;;;;2.33;2.22;;;10.60;99.90;;;;;;5078162;28;21004;-71
2023/04/12 01:30:38;;;;;;;2.22;2.05;;;10.50;99.90;;;;;;5076918;28;20201;-69
2023/04/12 01:33:07;;;;;;;1.90;1.80;;;10.50;99.90;;;;;;5074742;28;20213;-70
2023/04/12 01:35:34;;;;;;;2.05;1.95;;;10.50;99.90;;;;;;5076767;28;20205;-69
2023/04/12 01:38:01;;;;;;;2.22;2.13;;;10.40;99.90;;;;;;5076376;28;20222;-70
2023/04/12 01:40:30;;;;;;;3.13;2.88;;;10.30;99.90;;;;;;5080322;28;20236;-69
2023/04/12 01:43:09;;;;;;;3.10;2.90;;;10.20;99.90;;;;;;5080552;28;20882;-70
2023/04/12 01:45:36;;;;;;;2.90;2.70;;;10.20;99.90;;;;;;5085771;28;20259;-71
2023/04/12 01:48:05;;;;;;;2.67;2.47;;;10.20;99.90;;;;;;5082985;28;20245;-71
2023/04/12 01:50:40;;;;;;;2.53;2.42;;;10.20;99.90;;;;;;5083263;28;20202;-70
2023/04/12 01:53:13;;;;;;;2.60;2.40;;;10.30;99.90;;;;;;5082498;28;20197;-70
2023/04/12 01:55:44;;;;;;;3.08;2.88;;;10.30;99.90;;;;;;5079567;28;20255;-70
2023/04/12 01:58:14;;;;;;;3.25;3.05;;;10.40;99.90;;;;;;5080731;28;20267;-71
2023/04/12 02:00:44;;;;;;;4.28;3.95;;;10.40;99.90;;;;;;5079118;28;20796;-69
2023/04/12 02:03:12;;;;;;;4.55;4.15;;;10.40;99.90;;;;;;5077382;28;20267;-70
2023/04/12 02:05:39;;;;;;;4.25;3.95;;;10.40;99.90;;;;;;5079271;28;20225;-70
2023/04/12 02:08:07;;;;;;;4.15;3.83;;;10.40;99.90;;;;;;5083495;28;20640;-70
2023/04/12 02:10:35;;;;;;;4.45;4.03;;;10.40;99.90;;;;;;5081838;28;20208;-69
2023/04/12 02:13:03;;;;;;;4.90;4.53;;;10.50;99.90;;;;;;5080020;28;20294;-70
2023/04/12 02:15:32;;;;;;;6.05;5.47;;;10.50;99.90;;;;;;5081439;28;20202;-70
2023/04/12 02:18:00;;;;;;;6.00;5.50;;;10.40;99.90;;;;;;5080125;28;20245;-69
2023/04/12 02:20:27;;;;;;;5.90;5.35;;;10.30;99.90;;;;;;5081709;28;20263;-68
2023/04/12 02:22:54;;;;;;;5.15;4.70;;;10.30;99.90;;;;;;5078990;28;20284;-69
2023/04/12 02:25:21;;;;;;;5.57;4.45;;;10.30;99.90;;;;;;5082428;28;20198;-71
2023/04/12 02:27:48;;;;;;;5.90;5.40;;;10.30;99.90;;;;;;5078357;28;20221;-70
2023/04/12 02:30:15;;;;;;;5.00;4.50;;;10.30;99.90;;;;;;5077807;28;20300;-71
2023/04/12 02:32:44;;;;;;;4.90;4.50;;;10.30;99.90;;;;;;5078387;28;20197;-70
2023/04/12 02:35:11;;;;;;;5.25;4.85;;;10.40;99.90;;;;;;5081734;28;20205;-70
2023/04/12 02:37:39;;;;;;;5.07;4.68;;;10.40;99.90;;;;;;5082578;28;20311;-70
2023/04/12 02:40:09;;;;;;;5.80;5.30;;;10.30;99.90;;;;;;5080300;28;20285;-68
2023/04/12 02:42:36;;;;;;;5.63;5.22;;;10.30;99.90;;;;;;5080332;28;20233;-70
2023/04/12 02:45:03;;;;;;;5.43;4.93;;;10.30;99.90;;;;;;5081655;28;20863;-70
2023/04/12 02:47:30;;;;;;;5.88;5.38;;;10.30;99.90;;;;;;5080187;28;20217;-70
2023/04/12 02:49:59;;;;;;;5.35;4.95;;;10.30;99.90;;;;;;5079363;28;20205;-70
2023/04/12 02:52:28;;;;;;;6.15;5.65;;;10.30;99.90;;;;;;5080911;28;20198;-70
2023/04/12 02:54:55;;;;;;;5.45;4.95;;;10.30;99.90;;;;;;5079813;28;20210;-70
2023/04/12 02:57:22;;;;;;;6.47;5.88;;;10.40;99.90;;;;;;5081079;28;20285;-69
2023/04/12 02:59:52;;;;;;;6.30;5.80;;;10.40;99.90;;;;;;5080382;28;20220;-69
2023/04/12 03:02:19;;;;;;;6.60;6.00;;;10.30;99.90;;;;;;5078982;28;20203;-69
2023/04/12 03:04:49;;;;;;;6.28;5.78;;;10.20;99.90;;;;;;5080286;28;20232;-70
2023/04/12 03:07:20;;;;;;;7.10;6.40;;;10.20;99.90;;;;;;5077701;28;20215;-71
2023/04/12 03:09:47;;;;;;;6.15;5.55;;;10.20;99.90;;;;;;5080510;28;20198;-73
2023/04/12 03:12:15;;;;;;;7.20;6.60;;;10.20;99.90;;;;;;5081662;28;20644;-72
2023/04/12 03:14:42;;;;;;;6.28;5.75;;;10.20;99.90;;;;;;5079866;28;20284;-70
2023/04/12 03:17:09;;;;;;;6.63;6.00;;;10.20;99.90;;;;;;5080498;28;20678;-71
2023/04/12 03:19:36;;;;;;;6.35;5.85;;;10.20;99.90;;;;;;5080654;28;20212;-73
2023/04/12 03:22:03;;;;;;;6.90;6.30;;;10.30;99.90;;;;;;5075817;28;20202;-70
2023/04/12 03:24:33;;;;;;;7.15;6.50;;;10.30;99.90;;;;;;5079621;28;20568;-69
2023/04/12 03:27:02;;;;;;;5.95;5.45;;;10.20;99.90;;;;;;5077708;28;20213;-71
2023/04/12 03:29:29;;;;;;;10.23;7.50;;;10.20;99.90;;;;;;5079799;28;20221;-69
2023/04/12 03:31:58;;;;;;;7.32;6.72;;;10.10;99.90;;;;;;5078330;28;20220;-70
2023/04/12 03:34:26;;;;;;;7.50;6.80;;;10.10;99.90;;;;;;5081468;28;20237;-70
2023/04/12 03:36:54;;;;;;;7.03;6.43;;;10.00;99.90;;;;;;5079742;28;20194;-70
2023/04/12 03:39:22;;;;;;;7.60;6.55;;;10.10;99.90;;;;;;5082403;28;20768;-72
2023/04/12 03:41:51;;;;;;;6.47;5.97;;;10.10;99.90;;;;;;5081590;28;20234;-73
2023/04/12 03:44:20;;;;;;;7.25;6.55;;;10.10;99.90;;;;;;5080464;28;20233;-69
2023/04/12 03:46:47;;;;;;;7.65;6.82;;;10.10;99.90;;;;;;5075225;28;20604;-70
2023/04/12 03:49:15;;;;;;;6.95;6.35;;;10.10;99.90;;;;;;5080681;28;20222;-71
2023/04/12 03:51:42;;;;;;;7.03;6.43;;;10.10;99.90;;;;;;5080789;28;20204;-71
2023/04/12 03:54:10;;;;;;;7.07;6.47;;;10.10;99.90;;;;;;5082681;28;20231;-72
2023/04/12 03:56:37;;;;;;;7.15;6.55;;;10.20;99.90;;;;;;5078591;28;20681;-70
2023/04/12 03:59:06;;;;;;;7.28;6.68;;;10.20;99.90;;;;;;5077922;28;20634;-71
2023/04/12 04:01:33;;;;;;;6.50;5.90;;;10.20;99.90;;;;;;5078914;28;20202;-70
2023/04/12 04:04:00;;;;;;;6.10;5.57;;;10.30;99.90;;;;;;5079591;28;20197;-70
2023/04/12 04:06:28;;;;;;;7.30;6.60;;;10.30;99.90;;;;;;5076485;28;20196;-71
2023/04/12 04:08:56;;;;;;;7.88;6.55;;;10.30;99.90;;;;;;5073528;28;20304;-69
2023/04/12 04:11:23;;;;;;;7.22;6.63;;;10.30;99.90;;;;;;5070074;28;20300;-71
2023/04/12 04:13:50;;;;;;;7.13;6.50;;;10.30;99.90;;;;;;5070670;28;20207;-71
2023/04/12 04:16:19;;;;;;;7.47;6.70;;;10.30;99.90;;;;;;5072934;28;20803;-71
2023/04/12 04:18:46;;;;;;;7.72;7.13;;;10.30;99.90;;;;;;5071153;28;20217;-69
2023/04/12 04:21:14;;;;;;;6.78;6.18;;;10.20;99.90;;;;;;5071966;28;21266;-70
2023/04/12 04:23:43;;;;;;;6.75;6.18;;;10.20;99.90;;;;;;5073526;28;20209;-70
2023/04/12 04:26:11;;;;;;;7.10;6.50;;;10.20;99.90;;;;;;5070540;28;20328;-75
2023/04/12 04:28:38;;;;;;;6.93;6.22;;;10.20;99.90;;;;;;5071896;28;20241;-73
2023/04/12 04:31:06;;;;;;;6.43;5.93;;;10.20;99.90;;;;;;5070553;28;20229;-70
2023/04/12 04:33:34;;;;;;;7.25;6.00;;;10.20;99.90;;;;;;5072045;28;20288;-71
2023/04/12 04:36:03;;;;;;;5.78;5.35;;;10.20;99.90;;;;;;5074290;28;20201;-73
2023/04/12 04:38:31;;;;;;;6.35;5.82;;;10.20;99.90;;;;;;5074269;28;20225;-70
2023/04/12 04:40:58;;;;;;;6.95;6.25;;;10.20;99.90;;;;;;5074353;28;20207;-69
2023/04/12 04:43:29;;;;;;;6.95;6.35;;;10.20;99.90;;;;;;5073809;28;20220;-71
2023/04/12 04:45:56;;;;;;;6.18;5.57;;;10.20;99.90;;;;;;5071061;28;20277;-71
2023/04/12 04:48:23;;;;;;;6.60;5.68;;;10.20;99.90;;;;;;5072426;28;20222;-71
2023/04/12 04:50:52;;;;;;;6.63;6.07;;;10.20;99.90;;;;;;5075287;28;20297;-70
2023/04/12 04:53:20;;;;;;;5.93;5.43;;;10.30;99.90;;;;;;5072573;28;20289;-70
2023/04/12 04:55:47;;;;;;;6.93;6.22;;;10.30;99.90;;;;;;5073498;28;20349;-71
2023/04/12 04:58:15;;;;;;;6.22;5.70;;;10.30;99.90;;;;;;5080323;28;20589;-70
2023/04/12 05:00:43;;;;;;;5.82;5.32;;;10.40;99.90;;;;;;5083098;28;20217;-72
2023/04/12 05:03:10;;;;;;;6.00;5.47;;;10.40;99.90;;;;;;5087343;28;20202;-69
2023/04/12 05:05:38;;;;;;;5.80;5.30;;;10.40;99.90;;;;;;5087870;28;20202;-69
2023/04/12 05:08:06;;;;;;;6.20;5.60;;;10.40;99.90;;;;;;5085031;28;20246;-70
2023/04/12 05:10:33;;;;;;;4.93;4.43;;;10.40;99.90;;;;;;5084804;28;20197;-69
2023/04/12 05:13:00;;;;;;;5.05;4.65;;;10.40;99.90;;;;;;5083447;28;20334;-70
2023/04/12 05:15:27;;;;;;;5.32;4.90;;;10.40;99.90;;;;;;5081536;28;20201;-72
2023/04/12 05:17:54;;;;;;;4.70;4.30;;;10.40;99.90;;;;;;5088670;28;20248;-69
2023/04/12 05:20:21;;;;;;;3.92;3.63;;;10.50;99.90;;;;;;5090350;28;20287;-71
2023/04/12 05:22:48;;;;;;;3.70;3.47;;;10.50;99.90;;;;;;5082126;28;20200;-68
2023/04/12 05:25:18;;;;;;;4.72;3.40;;;10.40;99.90;;;;;;5083151;28;20201;-70
2023/04/12 05:27:45;;;;;;;3.47;3.28;;;10.40;99.90;;;;;;5086697;28;20667;-69
2023/04/12 05:30:13;;;;;;;3.33;3.13;;;10.40;99.90;;;;;;5083676;28;20199;-70
2023/04/12 05:32:40;;;;;;;2.40;2.30;;;10.40;99.90;;;;;;5089781;28;20217;-70
2023/04/12 05:35:07;;;;;;;2.63;2.42;;;10.50;99.90;;;;;;5087703;28;20270;-70
2023/04/12 05:37:34;;;;;;;2.67;2.30;;;10.50;99.90;;;;;;5086218;28;20276;-68
2023/04/12 05:40:04;;;;;;;2.30;2.20;;;10.50;99.90;;;;;;5092029;28;20204;-69
2023/04/12 05:42:32;;;;;;;2.22;2.03;;;10.50;99.90;;;;;;5095614;28;20213;-70
2023/04/12 05:45:00;;;;;;;2.40;2.30;;;10.60;99.90;;;;;;5092016;28;20265;-71
2023/04/12 05:47:27;;;;;;;2.80;2.60;;;10.60;99.90;;;;;;5088884;28;20256;-67
2023/04/12 05:49:54;;;;;;;2.45;2.35;;;10.70;99.90;;;;;;5083402;28;20724;-70
2023/04/12 05:52:21;;;;;;;2.13;2.03;;;10.70;99.90;;;;;;5082818;28;20204;-72
2023/04/12 05:54:48;;;;;;;2.10;2.00;;;10.70;99.90;;;;;;5081423;28;20727;-71
2023/04/12 05:57:16;;;;;;;2.75;2.55;;;10.80;99.90;;;;;;5082920;28;20259;-70
2023/04/12 05:59:44;;;;;;;3.38;2.58;;;10.90;99.90;;;;;;5085314;28;20244;-69
2023/04/12 06:02:11;;;;;;;2.72;2.53;;;10.80;99.90;;;;;;5086693;28;20241;-66
2023/04/12 06:04:39;;;;;;;4.03;2.65;;;10.70;99.90;;;;;;5087333;28;20400;-69
2023/04/12 06:07:08;;;;;;;3.17;2.53;;;10.70;99.90;;;;;;5077010;28;20744;-70
2023/04/12 06:09:35;;;;;;;2.70;2.50;;;10.70;99.90;;;;;;5077821;28;20214;-72
2023/04/12 06:12:02;;;;;;;2.72;2.53;;;10.80;99.90;;;;;;5076965;28;21290;-69
2023/04/12 06:14:29;;;;;;;2.55;2.35;;;10.90;99.90;;;;;;5080907;28;20235;-69
2023/04/12 06:16:58;;;;;;;2.53;2.33;;;10.90;99.90;;;;;;5076357;28;20240;-69
2023/04/12 06:19:26;;;;;;;2.40;2.20;;;10.90;99.90;;;;;;5079939;28;20708;-69
2023/04/12 06:21:53;;;;;;;2.28;2.08;;;11.00;99.90;;;;;;5078520;28;20622;-69
2023/04/12 06:24:20;;;;;;;2.72;2.53;;;11.00;99.90;;;;;;5079442;28;20259;-70
2023/04/12 06:26:46;;;;;;;2.67;2.47;;;11.00;99.90;;;;;;5079570;28;20280;-67
2023/04/12 06:29:13;;;;;;;2.42;2.22;;;11.00;99.90;;;;;;5078079;28;20267;-69
2023/04/12 06:31:40;;;;;;;2.45;2.25;;;11.00;99.90;;;;;;5075342;28;20679;-70
2023/04/12 06:34:09;;;;;;;2.53;2.40;;;11.10;99.90;;;;;;5080284;28;20288;-69
2023/04/12 06:36:37;;;;;;;3.78;2.22;;;11.10;99.90;;;;;;5076546;28;20216;-72
2023/04/12 06:39:04;;;;;;;3.55;2.40;;;11.10;99.90;;;;;;5077977;28;20224;-69
2023/04/12 06:41:31;;;;;;;3.50;2.35;;;11.10;99.90;;;;;;5080508;28;20783;-70
2023/04/12 06:43:58;;;;;;;2.30;2.10;;;11.10;99.90;;;;;;5078856;28;20189;-69
2023/04/12 06:46:28;;;;;;;2.53;2.38;;;11.00;99.90;;;;;;5079453;28;20265;-72
2023/04/12 06:48:55;;;;;;;2.80;2.60;;;11.00;99.90;;;;;;5076682;28;20221;-69
2023/04/12 06:51:23;;;;;;;2.50;2.30;;;10.90;99.90;;;;;;5076785;28;20213;-68
2023/04/12 06:53:50;;;;;;;2.45;2.25;;;10.90;99.90;;;;;;5073990;28;20292;-69
2023/04/12 06:56:17;;;;;;;2.10;2.00;;;10.90;99.90;;;;;;5074786;28;20237;-70
2023/04/12 06:58:44;;;;;;;4.50;2.10;;;10.90;99.90;;;;;;5069990;28;20245;-67
2023/04/12 07:01:13;;;;;;;2.20;2.10;;;11.00;99.90;;;;;;5070587;28;20291;-69
2023/04/12 07:03:40;;;;;;;1.90;1.80;;;11.00;99.90;;;;;;5075015;28;20194;-69
2023/04/12 07:06:07;;;;;;;3.13;2.92;;;11.00;99.90;;;;;;5073710;28;20301;-69
2023/04/12 07:08:36;;;;;;;2.72;2.53;;;11.00;99.90;;;;;;5073485;28;20290;-69
2023/04/12 07:11:04;;;;;;;2.72;2.53;;;11.10;99.90;;;;;;5072908;28;20202;-70
2023/04/12 07:13:31;;;;;;;2.55;2.35;;;11.10;99.90;;;;;;5073122;28;20201;-69
2023/04/12 07:15:59;;;;;;;2.28;2.17;;;11.00;99.90;;;;;;5072166;28;20267;-71
2023/04/12 07:18:26;;;;;;;3.83;2.65;;;11.00;99.90;;;;;;5072461;28;20222;-69
2023/04/12 07:20:55;;;;;;;3.13;2.83;;;10.90;99.90;;;;;;5071760;28;20229;-70
2023/04/12 07:23:22;;;;;;;2.80;2.60;;;10.90;99.90;;;;;;5071368;28;20238;-73
2023/04/12 07:25:50;;;;;;;2.78;2.58;;;10.90;99.90;;;;;;5072321;28;20641;-70
2023/04/12 07:28:18;;;;;;;3.58;3.28;;;11.00;99.90;;;;;;5067915;28;20841;-69
2023/04/12 07:30:45;;;;;;;2.97;2.78;;;11.10;99.90;;;;;;5072539;28;20238;-71
2023/04/12 07:33:12;;;;;;;3.67;2.92;;;11.20;99.90;;;;;;5071298;28;20255;-69
2023/04/12 07:35:39;;;;;;;2.88;2.67;;;11.20;99.90;;;;;;5072135;28;20290;-70
2023/04/12 07:38:06;;;;;;;2.47;2.28;;;11.30;99.90;;;;;;5069563;28;20241;-70
2023/04/12 07:40:33;;;;;;;2.42;2.20;;;11.20;99.90;;;;;;5073478;28;20197;-69
2023/04/12 07:43:02;;;;;;;2.17;2.08;;;11.20;99.90;;;;;;5073010;28;20300;-69
2023/04/12 07:45:29;;;;;;;2.38;2.03;;;11.20;99.90;;;;;;5068235;28;20251;-69
2023/04/12 07:47:56;;;;;;;2.30;2.20;;;11.20;99.90;;;;;;5067489;28;20240;-69
2023/04/12 07:50:22;;;;;;;2.30;2.20;;;11.30;99.90;;;;;;5070120;28;20328;-69
2023/04/12 07:52:49;;;;;;;3.17;2.50;;;11.30;99.90;;;;;;5070696;28;20197;-70
2023/04/12 07:55:16;;;;;;;3.00;2.65;;;11.30;99.90;;;;;;5072551;28;20206;-70
2023/04/12 07:57:43;;;;;;;2.85;2.65;;;11.40;99.90;;;;;;5074939;28;20282;-70
2023/04/12 08:00:13;;;;;;;2.67;2.47;;;11.40;99.90;;;;;;5072098;28;20230;-70
2023/04/12 08:02:40;;;;;;;3.03;2.83;;;11.50;99.90;;;;;;5071113;28;20288;-69
2023/04/12 08:05:08;;;;;;;2.88;2.67;;;11.50;99.90;;;;;;5072106;28;20205;-70
2023/04/12 08:07:35;;;;;;;2.15;1.95;;;11.60;99.90;;;;;;5070351;28;20887;-71
2023/04/12 08:10:02;;;;;;;2.63;2.40;;;11.60;99.90;;;;;;5072651;28;20297;-74
2023/04/12 08:12:28;;;;;;;1.70;1.60;;;11.60;99.90;;;;;;5069966;28;20297;-73
2023/04/12 08:14:55;;;;;;;2.22;1.80;;;11.70;99.90;;;;;;5072733;28;20226;-70
2023/04/12 08:17:27;;;;;;;1.70;1.60;;;11.70;99.90;;;;;;5073530;28;20292;-72
2023/04/12 08:19:54;;;;;;;1.83;1.70;;;11.80;99.90;;;;;;5075686;28;20930;-69
2023/04/12 08:22:21;;;;;;;1.88;1.77;;;11.90;99.90;;;;;;5070785;28;20226;-69
2023/04/12 08:24:48;;;;;;;2.15;1.98;;;11.80;99.90;;;;;;5074369;28;20767;-69
2023/04/12 08:27:15;;;;;;;1.80;1.70;;;11.80;99.90;;;;;;5071991;28;20206;-69
2023/04/12 08:29:43;;;;;;;1.70;1.60;;;11.80;99.90;;;;;;5069623;28;20309;-71
2023/04/12 08:32:11;;;;;;;1.55;1.45;;;11.80;99.90;;;;;;5066759;28;20213;-66
2023/04/12 08:34:39;;;;;;;2.20;2.00;;;11.80;99.90;;;;;;5072870;28;20198;-70
2023/04/12 08:37:06;;;;;;;1.95;1.85;;;11.80;99.90;;;;;;5065612;28;20210;-73
2023/04/12 08:39:33;;;;;;;1.80;1.67;;;11.70;99.90;;;;;;5070937;28;20234;-70
2023/04/12 08:42:01;;;;;;;1.55;1.55;;;11.60;99.90;;;;;;5071418;28;20221;-70
2023/04/12 08:44:35;;;;;;;1.63;1.58;;;11.70;99.90;;;;;;5072927;28;20213;-68
2023/04/12 08:47:03;;;;;;;1.92;1.83;;;11.70;99.90;;;;;;5068530;28;20240;-70
2023/04/12 08:49:31;;;;;;;1.70;1.60;;;11.70;99.90;;;;;;5075489;28;20754;-70
2023/04/12 08:52:04;;;;;;;1.80;1.70;;;11.80;99.90;;;;;;5076000;28;20197;-70
2023/04/12 08:54:31;;;;;;;1.70;1.60;;;11.80;99.90;;;;;;5077839;28;20668;-68
2023/04/12 08:57:01;;;;;;;1.80;1.70;;;11.80;99.90;;;;;;5077819;28;20925;-70
2023/04/12 08:59:29;;;;;;;3.25;1.67;;;11.80;99.90;;;;;;5079225;28;20228;-68
2023/04/12 09:01:56;;;;;;;1.88;1.50;;;11.80;99.90;;;;;;5075041;28;20194;-69
2023/04/12 09:04:24;;;;;;;1.83;1.73;;;11.80;99.90;;;;;;5076866;28;20681;-70
2023/04/12 09:06:50;;;;;;;1.80;1.70;;;11.80;99.90;;;;;;5077173;28;20736;-69
2023/04/12 09:09:19;;;;;;;1.60;1.50;;;11.80;99.90;;;;;;5075447;28;20232;-70
2023/04/12 09:11:46;;;;;;;2.17;1.92;;;11.80;99.90;;;;;;5082916;28;20239;-70
2023/04/12 09:14:23;;;;;;;2.58;2.38;;;11.80;99.90;;;;;;5082918;28;20202;-70
2023/04/12 09:16:50;;;;;;;2.70;2.50;;;11.90;99.90;;;;;;5097462;28;20193;-70
2023/04/12 09:19:30;;;;;;;2.85;2.60;;;11.90;99.90;;;;;;5101408;28;20209;-71
2023/04/12 09:21:57;;;;;;;3.25;2.95;;;12.00;99.90;;;;;;5105356;28;20252;-70
2023/04/12 09:24:25;;;;;;;2.60;2.40;;;12.00;99.90;;;;;;5101582;28;20193;-69
2023/04/12 09:27:02;;;;;;;2.70;2.50;;;12.10;99.90;;;;;;5091406;28;20198;-75
2023/04/12 09:29:30;;;;;;;2.97;2.33;;;12.10;99.90;;;;;;5083211;28;20714;-69
2023/04/12 09:32:00;;;;;;;2.17;2.03;;;12.10;99.90;;;;;;5077934;28;20197;-70
2023/04/12 09:34:27;;;;;;;3.17;1.90;;;12.10;99.90;;;;;;5073844;28;20448;-68
2023/04/12 09:36:54;;;;;;;2.10;2.00;;;12.10;99.90;;;;;;5077140;28;20225;-70
2023/04/12 09:39:30;;;;;;;1.70;1.60;;;12.20;99.90;;;;;;5076105;28;20219;-73
2023/04/12 09:42:05;;;;;;;1.83;1.73;;;12.20;99.90;;;;;;5076526;28;20200;-70
2023/04/12 09:44:33;;;;;;;1.85;1.75;;;12.30;99.90;;;;;;5076302;28;20228;-70
2023/04/12 09:47:01;;;;;;;1.92;1.50;;;12.40;99.90;;;;;;5076371;28;20197;-69
2023/04/12 09:49:38;;;;;;;1.80;1.70;;;12.40;99.90;;;;;;5076751;28;20283;-70
2023/04/12 09:52:07;;;;;;;1.67;1.58;;;12.40;99.90;;;;;;5074650;28;20892;-69
2023/04/12 09:54:39;;;;;;;1.67;1.58;;;12.30;99.90;;;;;;5075226;28;20236;-70
2023/04/12 09:57:07;;;;;;;1.90;1.80;;;12.30;99.90;;;;;;5073843;28;20232;-69
2023/04/12 09:59:37;;;;;;;2.67;1.98;;;12.20;99.90;;;;;;5074418;28;20198;-69
2023/04/12 10:02:08;;;;;;;2.92;2.65;;;12.20;99.90;;;;;;5071476;28;20205;-67
2023/04/12 10:04:37;;;;;;;3.10;2.67;;;12.20;99.90;;;;;;5072859;28;20205;-69
2023/04/12 10:07:05;;;;;;;4.47;2.40;;;12.20;99.90;;;;;;5069979;28;20205;-70
2023/04/12 10:09:33;;;;;;;3.03;2.35;;;12.20;99.90;;;;;;5073964;28;20217;-68
2023/04/12 10:12:03;;;;;;;2.38;2.22;;;12.20;99.90;;;;;;5074448;28;20197;-69
2023/04/12 10:14:30;;;;;;;2.58;2.20;;;12.10;99.90;;;;;;5074404;28;20209;-69
2023/04/12 10:16:59;;;;;;;2.67;2.47;;;12.00;99.90;;;;;;5073940;28;20327;-69
2023/04/12 10:19:27;;;;;;;2.40;2.20;;;12.00;99.90;;;;;;5075628;28;20817;-70
2023/04/12 10:21:55;;;;;;;2.30;2.08;;;12.10;99.90;;;;;;5075134;28;20202;-72
2023/04/12 10:24:23;;;;;;;2.05;1.95;;;12.20;99.90;;;;;;5075146;28;20221;-70
2023/04/12 10:26:50;;;;;;;2.67;2.47;;;12.20;99.90;;;;;;5075007;28;20197;-70
2023/04/12 10:29:26;;;;;;;2.20;2.10;;;12.30;99.90;;;;;;5071237;28;20313;-69
2023/04/12 10:31:53;;;;;;;2.30;2.10;;;12.40;99.90;;;;;;5074354;28;20288;-68
2023/04/12 10:34:25;;;;;;;3.38;2.30;;;12.40;99.90;;;;;;5073987;28;20197;-68
2023/04/12 10:36:53;;;;;;;2.25;2.10;;;12.40;99.90;;;;;;5076173;28;20206;-70
2023/04/12 10:39:36;;;;;;;3.83;1.77;;;12.50;99.90;;;;;;5072598;28;20260;-68
2023/04/12 10:42:23;;;;;;;3.90;2.00;;;12.50;99.90;;;;;;5070760;28;20718;-69
2023/04/12 10:44:53;;;;;;;2.90;1.98;;;12.40;99.90;;;;;;5073340;28;20229;-69
2023/04/12 10:48:00;;;;;;;2.13;1.90;;;12.40;99.90;;;;;;5073405;28;20221;-65
2023/04/12 10:50:29;;;;;;;5.53;2.25;;;12.40;99.90;;;;;;5076096;28;20217;-70
2023/04/12 10:53:21;;;;;;;2.72;1.88;;;12.40;99.90;;;;;;5075518;28;20270;-69
2023/04/12 10:55:48;;;;;;;1.90;1.80;;;12.30;99.90;;;;;;5071428;28;20598;-67
2023/04/12 10:58:57;;;;;;;2.28;2.13;;;12.40;99.90;;;;;;5070529;28;23200;-69
2023/04/12 11:01:26;;;;;;;2.20;1.48;;;12.50;99.90;;;;;;5074953;28;20808;-69
2023/04/12 11:04:13;;;;;;;1.92;1.83;;;12.50;99.90;;;;;;5067990;28;20672;-70
2023/04/12 11:07:00;;;;;;;3.97;1.98;;;12.60;99.90;;;;;;5074565;28;20204;-69
2023/04/12 11:09:28;;;;;;;2.33;2.13;;;12.60;99.90;;;;;;5066881;28;20217;-69
2023/04/12 11:12:11;;;;;;;5.13;2.25;;;12.50;99.90;;;;;;5067804;28;20284;-71
2023/04/12 11:14:43;;;;;;;2.53;2.33;;;12.40;99.90;;;;;;5072977;28;20707;-69
2023/04/12 11:17:25;;;;;;;2.05;1.90;;;12.30;99.90;;;;;;5072438;28;20209;-69
2023/04/12 11:19:57;;;;;;;2.22;2.10;;;12.20;99.90;;;;;;5070186;28;20667;-69
2023/04/12 11:22:26;;;;;;;2.25;2.13;;;12.20;99.90;;;;;;5069272;28;20279;-69
2023/04/12 11:24:55;;;;;;;2.13;2.00;;;12.10;99.90;;;;;;5069814;28;20209;-68
2023/04/12 11:27:24;;;;;;;4.65;2.13;;;12.10;99.90;;;;;;5073497;28;20294;-69
2023/04/12 11:29:53;;;;;;;2.47;2.30;;;12.10;99.90;;;;;;5073783;28;20209;-69
2023/04/12 11:32:21;;;;;;;2.28;2.08;;;12.20;99.90;;;;;;5075377;28;20240;-67
2023/04/12 11:34:50;;;;;;;2.00;1.90;;;12.30;99.90;;;;;;5077164;28;20422;-68
2023/04/12 11:37:20;;;;;;;2.30;2.15;;;12.30;99.90;;;;;;5072124;28;20836;-69
2023/04/12 11:39:48;;;;;;;2.33;2.22;;;12.30;99.90;;;;;;5077500;28;20198;-69
2023/04/12 11:42:16;;;;;;;2.60;2.40;;;12.20;99.90;;;;;;5074821;28;20828;-70
2023/04/12 11:44:44;;;;;;;1.90;1.80;;;12.30;99.90;;;;;;5072759;28;20300;-66
2023/04/12 11:47:16;;;;;;;1.80;1.70;;;12.40;99.90;;;;;;5073045;28;20251;-70
2023/04/12 11:49:52;;;;;;;1.73;1.63;;;12.40;99.90;;;;;;5074150;28;20224;-68
2023/04/12 11:52:20;;;;;;;1.90;1.80;;;12.40;99.90;;;;;;5074821;28;20225;-70
2023/04/12 11:54:48;;;;;;;2.03;1.83;;;12.40;99.90;;;;;;5070022;28;20724;-68
2023/04/12 11:57:17;;;;;;;4.78;2.53;;;12.40;99.90;;;;;;5068750;28;20306;-70
2023/04/12 11:59:45;;;;;;;2.50;1.98;;;12.40;99.90;;;;;;5073114;28;20237;-69
2023/04/12 12:02:13;;;;;;;3.20;2.35;;;12.40;99.90;;;;;;5068036;28;20462;-69
2023/04/12 12:04:42;;;;;;;2.47;2.20;;;12.30;99.90;;;;;;5073829;28;20193;-69
2023/04/12 12:07:11;;;;;;;2.20;2.10;;;12.30;99.90;;;;;;5068851;28;20194;-70
2023/04/12 12:09:39;;;;;;;2.00;1.90;;;12.30;99.90;;;;;;5072704;28;20329;-71
2023/04/12 12:12:07;;;;;;;1.80;1.70;;;12.30;99.90;;;;;;5073099;28;20193;-69
2023/04/12 12:14:35;;;;;;;3.08;1.90;;;12.40;99.90;;;;;;5070814;28;20281;-68
2023/04/12 12:17:09;;;;;;;2.42;2.22;;;12.40;99.90;;;;;;5071582;28;20205;-70
2023/04/12 12:19:38;;;;;;;2.58;2.38;;;12.50;99.90;;;;;;5073187;28;20198;-69
2023/04/12 12:22:17;;;;;;;2.40;2.20;;;12.40;99.90;;;;;;5070415;28;20251;-69
2023/04/12 12:24:51;;;;;;;3.25;2.33;;;12.40;99.90;;;;;;5071466;28;20784;-71
2023/04/12 12:27:19;;;;;;;3.60;2.60;;;12.40;99.90;;;;;;5071107;28;20224;-69
2023/04/12 12:29:54;;;;;;;2.92;2.63;;;12.30;99.90;;;;;;5070912;28;20222;-69
2023/04/12 12:32:23;;;;;;;3.03;2.83;;;12.30;99.90;;;;;;5071331;28;20263;-71
2023/04/12 12:34:54;;;;;;;3.50;3.20;;;12.30;99.90;;;;;;5073418;28;20641;-69
2023/04/12 12:37:24;;;;;;;4.30;3.05;;;12.30;99.90;;;;;;5072578;28;20209;-69
2023/04/12 12:40:05;;;;;;;6.45;3.13;;;12.30;99.90;;;;;;5074382;28;20197;-69
2023/04/12 12:42:34;;;;;;;2.75;2.55;;;12.20;99.90;;;;;;5075026;28;20653;-69
2023/04/12 12:45:03;;;;;;;5.55;2.67;;;12.30;99.90;;;;;;5074995;28;20674;-70
2023/04/12 12:47:30;;;;;;;3.88;2.50;;;12.30;99.90;;;;;;5077535;28;20206;-69
2023/04/12 12:49:57;;;;;;;3.22;2.63;;;12.30;99.90;;;;;;5075818;28;20237;-70
2023/04/12 12:52:25;;;;;;;2.38;2.17;;;12.30;99.90;;;;;;5080011;28;20268;-70
2023/04/12 12:54:52;;;;;;;2.40;2.30;;;12.40;99.90;;;;;;5076882;28;20674;-70
2023/04/12 12:57:19;;;;;;;2.85;2.42;;;12.40;99.90;;;;;;5074398;28;20230;-69